Time;durP1;ratioP1;P1;durP2;ratioP2;P2;SDS_P1;SDS_P2;PMS_P1;PMS_P2;Temp;Humidity;BMP_temperature;BMP_pressure;BME280_temperature;BME280_humidity;BME280_pressure;Samples;Min_cycle;Max_cycle;Signal;HPM_P1;HPM_P2
2022/10/31 00:00:42;;;;;;;36.08;15.88;;;13.10;99.90;;;;;;5035704;28;20127;-70
2022/10/31 00:03:08;;;;;;;36.95;17.08;;;13.10;99.90;;;;;;5035245;28;20505;-70
2022/10/31 00:05:34;;;;;;;36.42;16.50;;;13.00;99.90;;;;;;5035222;28;20040;-70
2022/10/31 00:07:59;;;;;;;38.13;16.38;;;13.00;99.90;;;;;;5018963;28;20139;-70
2022/10/31 00:10:25;;;;;;;36.15;16.20;;;13.00;99.90;;;;;;5018695;28;20041;-71
2022/10/31 00:12:51;;;;;;;36.60;16.48;;;13.00;99.90;;;;;;5034710;28;20044;-71
2022/10/31 00:15:17;;;;;;;42.33;17.33;;;12.90;99.90;;;;;;5035364;28;20040;-70
2022/10/31 00:17:42;;;;;;;43.15;18.23;;;13.00;99.90;;;;;;5035405;28;20041;-71
2022/10/31 00:20:09;;;;;;;38.45;17.92;;;12.90;99.90;;;;;;5051706;28;20052;-70
2022/10/31 00:22:34;;;;;;;41.10;18.80;;;12.90;99.90;;;;;;5035209;28;20041;-70
2022/10/31 00:25:00;;;;;;;37.42;19.00;;;12.90;99.90;;;;;;5051691;28;20389;-70
2022/10/31 00:27:26;;;;;;;41.65;18.13;;;12.90;99.90;;;;;;5035348;28;20111;-70
2022/10/31 00:29:51;;;;;;;42.33;17.70;;;12.90;99.90;;;;;;5035205;28;20037;-70
2022/10/31 00:32:17;;;;;;;45.05;20.23;;;13.00;99.90;;;;;;5051812;28;20040;-70
2022/10/31 00:34:43;;;;;;;41.55;19.55;;;12.90;99.90;;;;;;5022933;28;20079;-70
2022/10/31 00:37:08;;;;;;;43.45;19.38;;;12.90;99.90;;;;;;5039105;28;20088;-70
2022/10/31 00:39:34;;;;;;;43.65;19.02;;;13.00;99.90;;;;;;5022772;28;20049;-71
2022/10/31 00:42:00;;;;;;;47.25;19.92;;;12.90;99.90;;;;;;5039062;28;20091;-70
2022/10/31 00:44:25;;;;;;;47.63;18.92;;;12.90;99.90;;;;;;5055837;28;20520;-71
2022/10/31 00:46:51;;;;;;;49.08;19.35;;;12.90;99.90;;;;;;5055442;28;20096;-70
2022/10/31 00:49:16;;;;;;;48.42;19.45;;;12.90;99.90;;;;;;5022474;28;20056;-70
2022/10/31 00:51:42;;;;;;;48.80;19.13;;;12.80;99.90;;;;;;5039093;28;20049;-71
2022/10/31 00:54:08;;;;;;;42.67;18.70;;;12.80;99.90;;;;;;5055335;28;20053;-70
2022/10/31 00:56:34;;;;;;;41.85;18.67;;;12.80;99.90;;;;;;5055556;28;20045;-71
2022/10/31 00:58:59;;;;;;;44.33;19.05;;;12.80;99.90;;;;;;5038712;28;20099;-71
2022/10/31 01:01:25;;;;;;;45.42;18.17;;;12.80;99.90;;;;;;5055446;28;20041;-71
2022/10/31 01:03:51;;;;;;;40.97;18.15;;;12.70;99.90;;;;;;5038646;28;20044;-70
2022/10/31 01:06:17;;;;;;;42.20;18.55;;;12.70;99.90;;;;;;5021745;28;20060;-70
2022/10/31 01:08:43;;;;;;;45.25;18.92;;;12.70;99.90;;;;;;5022064;28;20562;-71
2022/10/31 01:11:17;;;;;;;40.60;17.85;;;12.70;99.90;;;;;;5022169;28;20076;-71
2022/10/31 01:13:44;;;;;;;49.83;18.88;;;12.70;99.90;;;;;;5055292;28;20095;-70
2022/10/31 01:16:15;;;;;;;43.40;18.00;;;12.70;99.90;;;;;;5055044;28;20049;-70
2022/10/31 01:18:41;;;;;;;37.05;18.15;;;12.60;99.90;;;;;;5054761;28;20044;-71
2022/10/31 01:21:14;;;;;;;44.40;18.80;;;12.60;99.90;;;;;;5054980;28;20463;-71
2022/10/31 01:23:40;;;;;;;39.70;17.48;;;12.60;99.90;;;;;;5054867;28;20054;-71
2022/10/31 01:26:14;;;;;;;39.45;18.33;;;12.50;99.90;;;;;;5037964;28;20049;-70
2022/10/31 01:29:01;;;;;;;40.55;17.67;;;12.40;99.90;;;;;;5038419;28;20057;-70
2022/10/31 01:31:32;;;;;;;40.60;17.13;;;12.40;99.90;;;;;;5054921;28;20079;-70
2022/10/31 01:33:58;;;;;;;40.13;17.80;;;12.40;99.90;;;;;;5055012;28;20056;-71
2022/10/31 01:36:30;;;;;;;37.88;18.17;;;12.30;99.90;;;;;;5038025;28;20291;-71
2022/10/31 01:39:00;;;;;;;36.65;17.63;;;12.30;99.90;;;;;;5054860;28;20508;-70
2022/10/31 01:41:29;;;;;;;44.17;17.95;;;12.30;99.90;;;;;;5037943;28;20045;-70
2022/10/31 01:43:58;;;;;;;44.58;17.88;;;12.30;99.90;;;;;;5053108;28;20044;-70
2022/10/31 01:46:36;;;;;;;42.55;17.45;;;12.20;99.90;;;;;;5037845;28;20080;-70
2022/10/31 01:49:06;;;;;;;38.92;18.50;;;12.20;99.90;;;;;;5054649;28;20067;-70
2022/10/31 01:51:35;;;;;;;41.92;19.20;;;12.20;99.90;;;;;;5054583;28;20132;-70
2022/10/31 01:54:06;;;;;;;44.45;18.67;;;12.20;99.90;;;;;;5054269;28;20124;-71
2022/10/31 01:56:36;;;;;;;47.70;18.40;;;12.30;99.90;;;;;;5054534;28;20037;-70
2022/10/31 01:59:06;;;;;;;41.80;18.13;;;12.30;99.90;;;;;;5037538;28;20417;-70
2022/10/31 02:01:32;;;;;;;42.08;19.40;;;12.20;99.90;;;;;;5054392;28;20473;-70
2022/10/31 02:03:58;;;;;;;44.53;18.63;;;12.30;99.90;;;;;;5037492;28;20048;-70
2022/10/31 02:06:38;;;;;;;50.42;18.98;;;12.30;99.90;;;;;;5036984;28;20531;-71
2022/10/31 02:09:05;;;;;;;41.72;17.95;;;12.30;99.90;;;;;;5037645;28;20127;-71
2022/10/31 02:11:34;;;;;;;41.63;17.02;;;12.30;99.90;;;;;;5037099;28;20518;-70
2022/10/31 02:14:01;;;;;;;39.55;17.67;;;12.20;99.90;;;;;;5053926;28;20439;-70
2022/10/31 02:16:27;;;;;;;41.75;17.30;;;12.10;99.90;;;;;;5053918;28;20381;-70
2022/10/31 02:18:54;;;;;;;39.13;17.08;;;12.10;99.90;;;;;;5037714;28;20070;-70
2022/10/31 02:21:44;;;;;;;39.00;17.40;;;12.00;99.90;;;;;;5020577;28;20049;-70
2022/10/31 02:24:25;;;;;;;37.75;16.45;;;12.00;99.90;;;;;;5053668;28;20056;-70
2022/10/31 02:26:59;;;;;;;43.63;17.47;;;11.90;99.90;;;;;;5053909;28;20098;-70
2022/10/31 02:30:06;;;;;;;41.50;17.95;;;11.80;99.90;;;;;;5053406;28;20333;-70
2022/10/31 02:32:57;;;;;;;37.58;17.33;;;11.80;99.90;;;;;;5052805;28;20057;-71
2022/10/31 02:35:28;;;;;;;38.77;16.90;;;11.80;99.90;;;;;;5053665;28;20450;-70
2022/10/31 02:37:57;;;;;;;;;;;11.70;99.90;;;;;;5054122;28;20123;-70
2022/10/31 02:40:27;;;;;;;51.78;18.35;;;11.70;99.90;;;;;;5053169;28;19967;-70
2022/10/31 02:42:55;;;;;;;35.22;14.68;;;11.70;99.90;;;;;;5036719;28;20517;-70
2022/10/31 02:45:47;;;;;;;38.85;15.60;;;11.70;99.90;;;;;;5053134;28;20135;-70
2022/10/31 02:48:19;;;;;;;38.75;14.70;;;11.70;99.90;;;;;;5036902;28;20059;-70
2022/10/31 02:50:53;;;;;;;43.80;15.55;;;11.60;99.90;;;;;;5053518;28;20045;-70
2022/10/31 02:53:19;;;;;;;38.17;16.75;;;11.60;99.90;;;;;;5053202;28;20401;-70
2022/10/31 02:56:01;;;;;;;35.92;16.13;;;11.60;99.90;;;;;;5035793;28;20049;-70
2022/10/31 02:58:28;;;;;;;;;;;11.60;99.90;;;;;;5036908;28;20110;-70
2022/10/31 03:01:31;;;;;;;44.20;17.20;;;11.60;99.90;;;;;;5053262;28;20016;-70
2022/10/31 03:04:28;;;;;;;36.28;15.55;;;11.60;99.90;;;;;;5053000;28;20047;-70
2022/10/31 03:07:12;;;;;;;40.53;16.90;;;11.40;99.90;;;;;;5052542;28;20053;-70
2022/10/31 03:09:52;;;;;;;40.13;16.60;;;11.40;99.90;;;;;;5052877;28;20530;-70
2022/10/31 03:12:39;;;;;;;42.25;17.63;;;11.40;99.90;;;;;;5036412;28;20084;-70
2022/10/31 03:15:14;;;;;;;42.83;17.40;;;11.40;99.90;;;;;;5053028;28;20450;-70
2022/10/31 03:17:50;;;;;;;45.53;17.98;;;11.40;99.90;;;;;;5056434;28;20555;-70
2022/10/31 03:20:20;;;;;;;43.72;17.20;;;11.40;99.90;;;;;;5056192;28;20048;-70
2022/10/31 03:22:46;;;;;;;46.97;18.25;;;11.30;99.90;;;;;;5056035;28;20040;-70
2022/10/31 03:25:13;;;;;;;48.55;19.20;;;11.30;99.90;;;;;;5056202;28;20435;-70
2022/10/31 03:27:42;;;;;;;53.85;19.35;;;11.30;99.90;;;;;;5055921;28;20059;-70
2022/10/31 03:30:08;;;;;;;47.63;18.05;;;11.30;99.90;;;;;;5071997;28;20044;-70
2022/10/31 03:32:55;;;;;;;50.90;19.17;;;11.20;99.90;;;;;;5055900;28;20049;-70
2022/10/31 03:35:24;;;;;;;48.42;18.45;;;11.20;99.90;;;;;;5056028;28;20048;-70
2022/10/31 03:37:53;;;;;;;53.85;19.88;;;11.20;99.90;;;;;;5072541;28;20083;-70
2022/10/31 03:40:23;;;;;;;65.85;17.63;;;11.20;99.90;;;;;;5055944;28;20055;-70
2022/10/31 03:43:03;;;;;;;70.85;17.45;;;11.10;99.90;;;;;;5072147;28;20473;-70
2022/10/31 03:45:30;;;;;;;35.63;15.83;;;11.00;99.90;;;;;;5055521;28;20077;-70
2022/10/31 03:47:58;;;;;;;46.08;16.83;;;10.90;99.90;;;;;;5072405;28;20083;-70
2022/10/31 03:50:29;;;;;;;46.72;17.50;;;10.90;99.90;;;;;;5072395;28;20071;-70
2022/10/31 03:53:09;;;;;;;43.20;17.58;;;10.80;99.90;;;;;;5072168;28;20398;-70
2022/10/31 03:55:57;;;;;;;48.85;17.98;;;10.80;99.90;;;;;;5072085;28;20060;-70
2022/10/31 03:58:32;;;;;;;50.22;18.88;;;10.70;99.90;;;;;;5055648;28;20066;-70
2022/10/31 04:01:01;;;;;;;52.30;19.13;;;10.60;99.90;;;;;;5072156;28;20048;-70
2022/10/31 04:03:31;;;;;;;51.15;20.13;;;10.70;99.90;;;;;;5071906;28;20119;-70
2022/10/31 04:06:00;;;;;;;57.55;20.60;;;10.70;99.90;;;;;;5071776;28;20481;-70
2022/10/31 04:08:31;;;;;;;54.22;19.80;;;10.70;99.90;;;;;;5071453;28;20114;-70
2022/10/31 04:10:59;;;;;;;57.67;20.27;;;10.60;99.90;;;;;;5072213;28;20048;-70
2022/10/31 04:13:29;;;;;;;55.67;21.42;;;10.60;99.90;;;;;;5055310;28;20036;-70
2022/10/31 04:15:56;;;;;;;57.97;22.43;;;10.60;99.90;;;;;;5072103;28;20040;-70
2022/10/31 04:18:25;;;;;;;60.25;21.85;;;10.70;99.90;;;;;;5055354;28;20371;-70
2022/10/31 04:21:01;;;;;;;64.07;21.15;;;10.70;99.90;;;;;;5067824;28;20048;-70
2022/10/31 04:23:27;;;;;;;62.55;20.90;;;10.60;99.90;;;;;;5055075;28;20041;-70
2022/10/31 04:25:53;;;;;;;81.13;19.30;;;10.60;99.90;;;;;;5071749;28;20040;-70
2022/10/31 04:28:19;;;;;;;60.67;18.15;;;10.60;99.90;;;;;;5065562;28;20391;-71
2022/10/31 04:30:44;;;;;;;58.45;18.80;;;10.50;99.90;;;;;;4717760;28;10000484;-71
2022/10/31 04:33:10;;;;;;;50.72;18.02;;;10.40;99.90;;;;;;5035601;28;20049;-70
2022/10/31 04:35:36;;;;;;;60.33;20.08;;;10.40;99.90;;;;;;5049198;28;20041;-69
2022/10/31 04:38:02;;;;;;;64.40;21.50;;;10.30;99.90;;;;;;5034016;28;20041;-70
2022/10/31 04:40:27;;;;;;;66.05;21.88;;;10.30;99.90;;;;;;5050264;28;20076;-70
2022/10/31 04:42:53;;;;;;;71.47;23.38;;;10.40;99.90;;;;;;5035185;28;20091;-70
2022/10/31 04:45:19;;;;;;;78.03;23.60;;;10.30;99.90;;;;;;5069453;28;20519;-71
2022/10/31 04:47:45;;;;;;;109.72;25.35;;;10.40;99.90;;;;;;5063255;28;20044;-70
2022/10/31 04:50:11;;;;;;;82.07;23.77;;;10.40;99.90;;;;;;5016260;28;20045;-70
2022/10/31 04:52:41;;;;;;;99.38;24.13;;;10.40;99.90;;;;;;5032328;28;20127;-70
2022/10/31 04:55:07;;;;;;;74.18;22.30;;;10.30;99.90;;;;;;5032140;28;20045;-70
2022/10/31 04:57:43;;;;;;;189.32;24.35;;;10.30;99.90;;;;;;5035108;28;20072;-70
2022/10/31 05:00:10;;;;;;;176.90;23.80;;;10.30;99.90;;;;;;5048780;28;20036;-70
2022/10/31 05:02:50;;;;;;;160.38;22.20;;;10.10;99.90;;;;;;5048562;28;20091;-69
2022/10/31 05:05:18;;;;;;;54.72;17.95;;;10.10;99.90;;;;;;5048638;28;20087;-70
2022/10/31 05:07:45;;;;;;;87.15;18.80;;;10.00;99.90;;;;;;5045802;28;20059;-70
2022/10/31 05:10:13;;;;;;;153.43;22.58;;;9.90;99.90;;;;;;5068937;28;20132;-70
2022/10/31 05:12:49;;;;;;;100.57;19.90;;;9.90;99.90;;;;;;5038155;28;20052;-72
2022/10/31 05:15:16;;;;;;;69.80;20.20;;;9.90;99.90;;;;;;5031937;28;20489;-70
2022/10/31 05:17:42;;;;;;;111.80;22.13;;;9.80;99.90;;;;;;5031705;28;20044;-70
2022/10/31 05:20:09;;;;;;;95.10;22.23;;;10.00;99.90;;;;;;5052522;28;20056;-70
2022/10/31 05:22:35;;;;;;;215.23;25.45;;;9.90;99.90;;;;;;5036836;28;20452;-70
2022/10/31 05:25:00;;;;;;;88.82;21.98;;;9.90;99.90;;;;;;5054732;28;20087;-70
2022/10/31 05:27:26;;;;;;;108.20;22.00;;;9.90;99.90;;;;;;5057850;28;20040;-70
2022/10/31 05:29:52;;;;;;;93.63;21.05;;;9.90;99.90;;;;;;5058038;28;20485;-70
2022/10/31 05:32:17;;;;;;;147.25;22.33;;;9.80;99.90;;;;;;5058336;28;20048;-70
2022/10/31 05:34:43;;;;;;;64.55;22.67;;;9.80;99.90;;;;;;5074638;28;20110;-68
2022/10/31 05:37:09;;;;;;;77.60;22.38;;;9.80;99.90;;;;;;5058282;28;20630;-70
2022/10/31 05:39:34;;;;;;;69.68;23.85;;;9.80;99.90;;;;;;5074861;28;20048;-69
2022/10/31 05:42:00;;;;;;;70.03;24.95;;;10.00;99.90;;;;;;5074447;28;20080;-69
2022/10/31 05:44:26;;;;;;;68.35;25.27;;;10.00;99.90;;;;;;5074478;28;20040;-69
2022/10/31 05:46:51;;;;;;;79.28;25.58;;;10.10;99.90;;;;;;5057678;28;20461;-69
2022/10/31 05:49:17;;;;;;;77.72;24.23;;;10.20;99.90;;;;;;5057997;28;20040;-70
2022/10/31 05:51:43;;;;;;;83.63;25.33;;;10.10;99.90;;;;;;5074668;28;20181;-69
2022/10/31 05:54:09;;;;;;;76.75;25.90;;;10.20;99.90;;;;;;5074393;28;20052;-69
2022/10/31 05:56:34;;;;;;;100.13;26.38;;;10.20;99.90;;;;;;5074284;28;20431;-69
2022/10/31 05:59:00;;;;;;;119.35;28.13;;;10.20;99.90;;;;;;5041119;28;20094;-70
2022/10/31 06:01:26;;;;;;;80.38;26.33;;;10.20;99.90;;;;;;5074472;28;20377;-69
2022/10/31 06:03:51;;;;;;;68.80;24.77;;;10.50;99.90;;;;;;5057258;28;20374;-69
2022/10/31 06:06:17;;;;;;;76.00;26.67;;;10.10;99.90;;;;;;5073738;28;20060;-69
2022/10/31 06:08:43;;;;;;;96.55;26.85;;;10.10;99.90;;;;;;5057689;28;20193;-69
2022/10/31 06:11:08;;;;;;;91.70;26.90;;;10.10;99.90;;;;;;5073986;28;20862;-70
2022/10/31 06:13:34;;;;;;;86.50;26.17;;;10.00;99.90;;;;;;5057554;28;20591;-69
2022/10/31 06:16:00;;;;;;;111.82;28.13;;;10.00;99.90;;;;;;5057188;28;20041;-69
2022/10/31 06:18:26;;;;;;;110.63;25.77;;;10.00;99.90;;;;;;5057065;28;20127;-69
2022/10/31 06:20:51;;;;;;;84.25;24.88;;;9.90;99.90;;;;;;5056905;28;20040;-69
2022/10/31 06:23:17;;;;;;;80.70;24.30;;;9.90;99.90;;;;;;5073886;28;20044;-69
2022/10/31 06:25:42;;;;;;;84.10;24.42;;;9.90;99.90;;;;;;5057359;28;20045;-69
2022/10/31 06:28:08;;;;;;;196.70;30.40;;;9.90;99.90;;;;;;5073538;28;20056;-68
2022/10/31 06:30:34;;;;;;;342.88;34.03;;;9.90;99.90;;;;;;5056529;28;20131;-69
2022/10/31 06:33:04;;;;;;;162.38;26.70;;;9.90;99.90;;;;;;5057064;28;20045;-69
2022/10/31 06:35:30;;;;;;;62.53;24.13;;;9.80;99.90;;;;;;5056801;28;20413;-70
2022/10/31 06:37:56;;;;;;;72.97;25.45;;;9.90;99.90;;;;;;5073531;28;20057;-69
2022/10/31 06:40:22;;;;;;;580.25;39.40;;;9.90;99.90;;;;;;5057068;28;20059;-69
2022/10/31 06:42:59;;;;;;;260.50;23.30;;;9.90;99.90;;;;;;5073589;28;20080;-69
2022/10/31 06:45:25;;;;;;;287.80;25.42;;;9.80;99.90;;;;;;5056880;28;20480;-69
2022/10/31 06:47:55;;;;;;;190.95;22.52;;;9.70;99.90;;;;;;5073648;28;20435;-69
2022/10/31 06:50:22;;;;;;;96.82;20.83;;;9.70;99.90;;;;;;5056879;28;20056;-70
2022/10/31 06:52:56;;;;;;;63.00;23.70;;;9.70;99.90;;;;;;5056714;28;20045;-69
2022/10/31 06:55:23;;;;;;;105.18;29.13;;;9.80;99.90;;;;;;5056834;28;20106;-69
2022/10/31 06:57:53;;;;;;;89.15;27.70;;;9.90;99.90;;;;;;5073428;28;20052;-69
2022/10/31 07:00:19;;;;;;;81.50;28.50;;;10.00;99.90;;;;;;5056486;28;20089;-69
2022/10/31 07:03:02;;;;;;;94.57;31.77;;;10.10;99.90;;;;;;5056454;28;20481;-69
2022/10/31 07:05:29;;;;;;;88.93;30.65;;;10.20;99.90;;;;;;5056656;28;20103;-69
2022/10/31 07:08:00;;;;;;;87.07;30.52;;;10.50;99.90;;;;;;5072473;28;20055;-70
2022/10/31 07:11:16;;;;;;;92.45;32.03;;;10.40;99.90;;;;;;5056548;28;20063;-69
2022/10/31 07:13:44;;;;;;;84.10;29.35;;;10.40;99.90;;;;;;5072780;28;20078;-70
2022/10/31 07:16:12;;;;;;;72.18;27.55;;;10.50;99.90;;;;;;5072748;28;20040;-69
2022/10/31 07:18:38;;;;;;;71.47;27.60;;;10.50;99.90;;;;;;5056632;28;20045;-69
2022/10/31 07:21:04;;;;;;;77.07;28.58;;;10.60;99.90;;;;;;5072663;28;20052;-69
2022/10/31 07:23:30;;;;;;;72.55;25.65;;;10.50;99.90;;;;;;5039491;28;20041;-69
2022/10/31 07:25:57;;;;;;;74.93;25.95;;;10.50;99.90;;;;;;5072503;28;20044;-70
2022/10/31 07:28:23;;;;;;;70.72;25.25;;;10.40;99.90;;;;;;5055716;28;20048;-70
2022/10/31 07:30:57;;;;;;;66.35;26.10;;;10.40;99.90;;;;;;5039508;28;20091;-69
2022/10/31 07:33:25;;;;;;;63.20;26.55;;;10.50;99.90;;;;;;5055709;28;20051;-69
2022/10/31 07:35:51;;;;;;;75.90;28.17;;;10.50;99.90;;;;;;5055648;28;20048;-69
2022/10/31 07:38:17;;;;;;;69.57;27.73;;;10.60;99.90;;;;;;5072266;28;20434;-70
2022/10/31 07:40:43;;;;;;;75.05;29.42;;;10.60;99.90;;;;;;5055756;28;20051;-70
2022/10/31 07:43:11;;;;;;;66.95;29.02;;;10.60;99.90;;;;;;5055451;28;20048;-69
2022/10/31 07:45:37;;;;;;;74.63;29.25;;;10.70;99.90;;;;;;5072224;28;20549;-70
2022/10/31 07:48:03;;;;;;;70.32;29.73;;;10.80;99.90;;;;;;5055494;28;20127;-70
2022/10/31 07:50:30;;;;;;;72.05;29.05;;;10.80;99.90;;;;;;5038913;28;20127;-70
2022/10/31 07:53:01;;;;;;;65.22;27.80;;;10.90;99.90;;;;;;5055644;28;20041;-70
2022/10/31 07:55:27;;;;;;;72.78;28.55;;;11.00;99.90;;;;;;5072095;28;20044;-70
2022/10/31 07:58:01;;;;;;;75.43;30.58;;;11.10;99.90;;;;;;5072272;28;20048;-70
2022/10/31 08:00:27;;;;;;;73.43;30.42;;;11.10;99.90;;;;;;5055432;28;20676;-70
2022/10/31 08:02:58;;;;;;;71.70;30.27;;;11.20;99.90;;;;;;5055230;28;20048;-70
2022/10/31 08:05:23;;;;;;;69.20;29.25;;;11.40;99.90;;;;;;5071928;28;20043;-70
2022/10/31 08:07:49;;;;;;;75.18;30.92;;;11.50;99.90;;;;;;5071538;28;20060;-71
2022/10/31 08:10:15;;;;;;;66.95;30.95;;;11.60;99.90;;;;;;5038675;28;20102;-70
2022/10/31 08:12:41;;;;;;;66.25;30.73;;;11.80;99.90;;;;;;5055513;28;20041;-70
2022/10/31 08:15:07;;;;;;;64.82;31.25;;;11.80;99.90;;;;;;5072051;28;20055;-70
2022/10/31 08:17:36;;;;;;;67.90;31.90;;;11.90;99.90;;;;;;5071690;28;20048;-70
2022/10/31 08:20:03;;;;;;;58.53;29.95;;;12.00;99.90;;;;;;5071971;28;20131;-70
2022/10/31 08:22:29;;;;;;;60.55;28.98;;;12.00;99.90;;;;;;5038557;28;20063;-70
2022/10/31 08:24:55;;;;;;;52.90;28.42;;;12.10;99.90;;;;;;5072034;28;20044;-70
2022/10/31 08:27:20;;;;;;;55.10;26.70;;;12.10;99.90;;;;;;5071709;28;20477;-70
2022/10/31 08:29:46;;;;;;;59.00;26.52;;;12.00;99.90;;;;;;5055172;28;20045;-70
2022/10/31 08:32:12;;;;;;;56.63;26.00;;;12.00;99.90;;;;;;5038558;28;20103;-70
2022/10/31 08:34:38;;;;;;;53.15;25.98;;;12.10;99.90;;;;;;5038552;28;20049;-70
2022/10/31 08:37:04;;;;;;;46.10;24.85;;;12.20;99.90;;;;;;5055213;28;20098;-70
2022/10/31 08:39:29;;;;;;;47.55;26.17;;;12.30;99.90;;;;;;5038330;28;20396;-70
2022/10/31 08:41:55;;;;;;;54.30;27.23;;;12.50;99.90;;;;;;5071389;28;20166;-71
2022/10/31 08:44:21;;;;;;;48.15;27.52;;;12.60;99.90;;;;;;5054656;28;20040;-70
2022/10/31 08:46:46;;;;;;;39.13;23.75;;;12.80;99.90;;;;;;5071705;28;20067;-70
2022/10/31 08:49:12;;;;;;;43.60;25.30;;;12.80;99.90;;;;;;5054940;28;20065;-70
2022/10/31 08:51:38;;;;;;;39.05;23.67;;;12.90;99.90;;;;;;5038380;28;20142;-70
2022/10/31 08:54:04;;;;;;;40.58;23.15;;;13.10;99.90;;;;;;5040355;28;20389;-70
2022/10/31 08:56:29;;;;;;;37.30;22.70;;;13.20;99.90;;;;;;5042194;28;20044;-70
2022/10/31 08:58:55;;;;;;;41.20;23.13;;;13.30;99.90;;;;;;5058978;28;20507;-70
2022/10/31 09:01:21;;;;;;;35.28;21.63;;;13.40;99.90;;;;;;5075332;28;20075;-70
2022/10/31 09:03:47;;;;;;;34.45;22.23;;;13.40;99.90;;;;;;5058682;28;20040;-70
2022/10/31 09:06:12;;;;;;;35.40;20.90;;;13.60;99.90;;;;;;5075180;28;20040;-70
2022/10/31 09:08:38;;;;;;;33.95;20.13;;;13.60;99.90;;;;;;5058633;28;20568;-70
2022/10/31 09:11:06;;;;;;;31.85;20.20;;;13.60;99.90;;;;;;5075372;28;20044;-70
2022/10/31 09:13:32;;;;;;;31.00;20.08;;;13.70;99.90;;;;;;5058431;28;20044;-70
2022/10/31 09:16:01;;;;;;;34.25;20.50;;;13.60;99.90;;;;;;5075233;28;20131;-70
2022/10/31 09:18:31;;;;;;;30.35;20.27;;;13.60;99.90;;;;;;5074618;28;20082;-70
2022/10/31 09:20:59;;;;;;;30.80;19.80;;;13.70;99.90;;;;;;5058297;28;20386;-69
2022/10/31 09:23:25;;;;;;;29.17;19.25;;;13.80;99.90;;;;;;5058063;28;20110;-70
2022/10/31 09:25:52;;;;;;;28.75;19.35;;;13.80;99.90;;;;;;5074714;28;20044;-70
2022/10/31 09:28:23;;;;;;;29.30;19.27;;;13.90;99.90;;;;;;5058591;28;20083;-70
2022/10/31 09:30:51;;;;;;;28.33;17.85;;;14.00;99.90;;;;;;5075141;28;20054;-70
2022/10/31 09:33:18;;;;;;;29.00;17.50;;;14.10;99.90;;;;;;5074809;28;20484;-71
2022/10/31 09:35:43;;;;;;;29.20;17.70;;;14.20;99.90;;;;;;5041454;28;20433;-70
2022/10/31 09:38:11;;;;;;;28.90;19.33;;;14.30;99.90;;;;;;5058214;28;20048;-70
2022/10/31 09:40:51;;;;;;;31.42;18.88;;;14.30;99.90;;;;;;5057917;28;20141;-69
2022/10/31 09:43:38;;;;;;;27.25;18.10;;;14.40;99.90;;;;;;5058105;28;20083;-69
2022/10/31 09:46:35;;;;;;;29.85;19.63;;;14.50;99.90;;;;;;5074355;28;20408;-70
2022/10/31 09:49:30;;;;;;;29.23;18.38;;;14.50;99.90;;;;;;5058139;28;20052;-70
2022/10/31 09:52:04;;;;;;;30.30;17.77;;;14.80;99.90;;;;;;5051904;28;20559;-70
2022/10/31 09:54:48;;;;;;;32.30;20.35;;;15.00;99.90;;;;;;5074486;28;20460;-69
2022/10/31 09:57:18;;;;;;;32.17;19.05;;;15.10;99.90;;;;;;5057809;28;20051;-70
2022/10/31 09:59:46;;;;;;;29.25;17.05;;;15.40;99.90;;;;;;5057604;28;20048;-70
2022/10/31 10:02:18;;;;;;;28.63;17.63;;;15.50;99.90;;;;;;5074104;28;20086;-70
2022/10/31 10:04:51;;;;;;;25.80;16.52;;;15.50;99.90;;;;;;5073063;28;20048;-70
2022/10/31 10:07:44;;;;;;;23.70;14.68;;;15.50;99.90;;;;;;5073908;28;20056;-70
2022/10/31 10:10:37;;;;;;;23.67;14.27;;;15.60;99.90;;;;;;5057483;28;20049;-70
2022/10/31 10:13:15;;;;;;;24.60;13.88;;;15.60;99.90;;;;;;5056735;28;20048;-70
2022/10/31 10:15:47;;;;;;;22.27;13.13;;;15.70;99.90;;;;;;5074091;28;20051;-70
2022/10/31 10:18:27;;;;;;;23.50;13.50;;;15.60;99.90;;;;;;5074071;28;20098;-70
2022/10/31 10:21:11;;;;;;;19.15;12.70;;;15.70;99.90;;;;;;5073924;28;20078;-70
2022/10/31 10:24:02;;;;;;;24.17;12.27;;;15.80;99.90;;;;;;5073734;28;20382;-70
2022/10/31 10:26:50;;;;;;;25.77;12.90;;;15.90;99.90;;;;;;5074074;28;20048;-70
2022/10/31 10:29:27;;;;;;;19.05;12.23;;;16.00;99.90;;;;;;5042654;28;20091;-70
2022/10/31 10:31:55;;;;;;;20.70;11.93;;;16.10;99.90;;;;;;5056983;28;20053;-70
2022/10/31 10:34:23;;;;;;;18.27;12.25;;;16.10;99.90;;;;;;5057084;28;20040;-70
2022/10/31 10:36:57;;;;;;;18.83;11.52;;;16.00;99.90;;;;;;5073615;28;20067;-70
2022/10/31 10:39:26;;;;;;;23.25;12.43;;;16.00;99.90;;;;;;5073816;28;20052;-70
2022/10/31 10:47:36;;;;;;;27.80;16.75;;;16.00;99.90;;;;;;5073626;28;20052;-70
2022/10/31 10:50:20;;;;;;;52.97;42.42;;;16.00;99.90;;;;;;5073655;28;20431;-70
2022/10/31 10:53:35;;;;;;;27.52;18.25;;;16.20;99.90;;;;;;5073390;28;20056;-70
2022/10/31 10:56:20;;;;;;;28.45;19.83;;;16.30;99.90;;;;;;5073501;28;20548;-70
2022/10/31 10:58:46;;;;;;;21.38;14.68;;;16.50;99.90;;;;;;5056526;28;20049;-70
2022/10/31 11:01:14;;;;;;;22.33;15.38;;;16.60;99.90;;;;;;5056556;28;20056;-70
2022/10/31 11:03:41;;;;;;;27.40;19.33;;;16.80;99.90;;;;;;5072771;28;20515;-70
2022/10/31 11:06:21;;;;;;;19.52;13.15;;;16.90;99.90;;;;;;5040115;28;20040;-70
2022/10/31 11:08:48;;;;;;;22.42;12.10;;;17.00;99.90;;;;;;5056309;28;20436;-70
2022/10/31 11:11:34;;;;;;;20.67;11.73;;;17.10;99.90;;;;;;5073051;28;20080;-70
2022/10/31 11:14:04;;;;;;;21.25;12.43;;;17.00;99.90;;;;;;5072140;28;20063;-69
2022/10/31 11:16:36;;;;;;;22.40;14.57;;;16.90;99.90;;;;;;5056099;28;20051;-70
2022/10/31 11:19:23;;;;;;;17.00;11.77;;;16.80;99.90;;;;;;5056091;28;20345;-70
2022/10/31 11:21:49;;;;;;;18.48;11.80;;;16.80;99.90;;;;;;5055995;28;20539;-69
2022/10/31 11:24:27;;;;;;;18.73;11.55;;;16.90;99.90;;;;;;5039359;28;20539;-70
2022/10/31 11:27:11;;;;;;;20.85;12.25;;;16.80;99.90;;;;;;5056066;28;20053;-70
2022/10/31 11:29:37;;;;;;;19.50;11.43;;;16.70;99.90;;;;;;5072833;28;20048;-70
2022/10/31 11:32:03;;;;;;;20.70;12.18;;;16.80;99.90;;;;;;5072463;28;20051;-70
2022/10/31 11:34:41;;;;;;;19.80;11.38;;;16.80;99.90;;;;;;5055591;28;20483;-70
2022/10/31 11:37:16;;;;;;;19.63;12.13;;;17.00;99.90;;;;;;5063966;28;20381;-70
2022/10/31 11:39:52;;;;;;;18.58;11.63;;;17.30;99.90;;;;;;5064611;28;20400;-70
2022/10/31 11:42:24;;;;;;;26.54;12.49;;;17.90;99.90;;;;;;4716153;28;10000687;-70
2022/10/31 11:44:51;;;;;;;19.83;11.55;;;18.20;99.90;;;;;;5049785;28;20398;-70
2022/10/31 11:47:27;;;;;;;15.77;10.32;;;18.60;99.90;;;;;;5049871;28;20048;-70
2022/10/31 11:49:53;;;;;;;17.73;10.00;;;18.80;99.90;;;;;;5032819;28;20044;-70
2022/10/31 11:52:27;;;;;;;16.88;9.27;;;18.60;99.90;;;;;;5033198;28;20048;-71
2022/10/31 11:55:13;;;;;;;18.40;9.13;;;18.60;99.90;;;;;;5047362;28;20182;-71
2022/10/31 11:57:48;;;;;;;14.18;8.43;;;18.50;99.90;;;;;;5035917;28;20049;-70
2022/10/31 12:00:30;;;;;;;13.82;7.90;;;18.60;99.90;;;;;;5033037;28;20036;-71
2022/10/31 12:03:14;;;;;;;12.80;7.00;;;18.40;99.90;;;;;;5028139;28;20044;-70
2022/10/31 12:05:41;;;;;;;11.80;7.20;;;18.20;99.90;;;;;;5032715;28;20460;-70
2022/10/31 12:08:12;;;;;;;14.40;7.53;;;18.10;99.90;;;;;;5031246;28;20135;-71
2022/10/31 12:10:58;;;;;;;;;;;18.10;99.90;;;;;;5033490;28;20061;-70
2022/10/31 12:13:49;;;;;;;12.70;7.25;;;18.00;99.90;;;;;;5048331;28;19924;-71
2022/10/31 12:16:25;;;;;;;13.55;7.38;;;17.80;99.90;;;;;;5049559;28;20052;-71
2022/10/31 12:18:57;;;;;;;13.55;7.63;;;17.80;99.90;;;;;;5069025;28;20101;-70
2022/10/31 12:21:46;;;;;;;14.23;7.88;;;17.70;99.90;;;;;;5069697;28;20488;-70
2022/10/31 12:24:35;;;;;;;14.85;7.43;;;17.80;99.90;;;;;;5045787;28;20200;-70
2022/10/31 12:27:19;;;;;;;13.25;7.57;;;18.10;99.90;;;;;;5050483;28;20048;-70
2022/10/31 12:29:50;;;;;;;13.32;7.45;;;18.50;99.90;;;;;;5069094;28;20361;-70
2022/10/31 12:33:03;;;;;;;14.73;7.05;;;18.80;99.90;;;;;;5069156;28;20048;-71
2022/10/31 12:35:57;;;;;;;13.55;7.68;;;19.10;99.90;;;;;;5045430;28;20075;-71
2022/10/31 12:38:48;;;;;;;12.55;7.57;;;19.90;99.90;;;;;;5069501;28;20055;-71
2022/10/31 12:41:35;;;;;;;13.95;7.18;;;20.10;99.90;;;;;;5038233;28;20049;-72
2022/10/31 12:44:14;;;;;;;14.27;7.05;;;19.80;99.90;;;;;;5078553;28;20056;-70
2022/10/31 12:47:31;;;;;;;14.88;7.20;;;19.70;99.90;;;;;;5052782;28;20056;-71
2022/10/31 12:50:29;;;;;;;13.27;6.65;;;19.40;99.90;;;;;;5010046;28;20128;-70
2022/10/31 12:53:08;;;;;;;13.30;7.20;;;19.10;99.90;;;;;;5038329;28;20056;-71
2022/10/31 12:55:55;;;;;;;13.65;7.00;;;18.90;99.90;;;;;;5068915;28;20080;-70